Time;durP1;ratioP1;P1;durP2;ratioP2;P2;SDS_P1;SDS_P2;PMS_P1;PMS_P2;Temp;Humidity;BMP_temperature;BMP_pressure;BME280_temperature;BME280_humidity;BME280_pressure;Samples;Min_cycle;Max_cycle;Signal;HPM_P1;HPM_P2
2022/05/07 00:00:52;;;;;;;;;;;;;;;19.89;39.71;101625.41;102561;1329;76732;-83
2022/05/07 00:03:38;;;;;;;;;;;;;;;;;;;;;
2022/05/07 00:06:38;;;;;;;;;;;;;;;19.89;39.69;101621.83;102626;1326;62044;-81
2022/05/07 00:09:33;;;;;;;;;;;;;;;19.89;39.71;101620.56;103090;1319;72876;-86
2022/05/07 00:12:13;;;;;;;;;;;;;;;19.89;39.74;101617.58;103518;1319;75657;-83
2022/05/07 00:14:55;;;;;;;;;;;;;;;19.89;39.72;101617.55;103467;1317;61954;-85
2022/05/07 00:20:48;;;;;;;;;;;;;;;19.89;39.72;101615.07;103704;1316;71558;-85
2022/05/07 00:23:14;;;;;;;;;;;;;;;19.88;39.83;101614.91;104205;1308;76823;-83
2022/05/07 00:26:00;;;;;;;;;;;;;;;19.88;39.73;101612.77;104501;1308;62075;-81
2022/05/07 00:28:40;;;;;;;;;;;;;;;;;;;;;
2022/05/07 00:31:25;;;;;;;;;;;;;;;19.88;39.80;101617.61;105338;1299;73829;-86
2022/05/07 00:34:21;;;;;;;;;;;;;;;19.88;39.83;101619.59;105351;1299;74223;-82
2022/05/07 00:37:15;;;;;;;;;;;;;;;19.88;40.01;101618.53;105340;1299;61983;-89
2022/05/07 00:39:55;;;;;;;;;;;;;;;19.88;39.82;101619.05;104886;1304;61999;-84
2022/05/07 00:42:46;;;;;;;;;;;;;;;19.88;39.74;101618.86;104910;1305;72622;-83
2022/05/07 00:45:23;;;;;;;;;;;;;;;19.88;39.75;101621.55;104270;1314;74711;-83
2022/05/07 00:48:15;;;;;;;;;;;;;;;19.88;39.72;101618.89;104328;1314;62111;-83
2022/05/07 00:53:45;;;;;;;;;;;;;;;19.87;39.84;101624.27;104327;1314;73810;-83
2022/05/07 00:56:24;;;;;;;;;;;;;;;;;;;;;
2022/05/07 00:59:15;;;;;;;;;;;;;;;19.87;39.86;101622.65;104351;1314;62092;-83
2022/05/07 01:01:50;;;;;;;;;;;;;;;19.87;39.80;101624.11;104314;1313;62089;-86
2022/05/07 01:04:26;;;;;;;;;;;;;;;19.86;39.89;101624.11;104324;1314;73409;-85
2022/05/07 01:06:53;;;;;;;;;;;;;;;19.87;39.94;101621.62;104347;1312;76675;-84
2022/05/07 01:09:48;;;;;;;;;;;;;;;19.86;39.81;101623.94;104321;1313;62014;-87
2022/05/07 01:12:24;;;;;;;;;;;;;;;19.86;40.04;101622.87;104355;1313;61980;-84
2022/05/07 01:15:06;;;;;;;;;;;;;;;19.86;39.83;101619.70;104362;1314;73810;-81
2022/05/07 01:17:41;;;;;;;;;;;;;;;19.86;40.03;101615.58;104529;1308;76393;-79
2022/05/07 01:20:39;;;;;;;;;;;;;;;19.86;39.93;101612.73;104595;1308;62005;-82
2022/05/07 01:23:29;;;;;;;;;;;;;;;19.86;40.01;101609.52;104564;1307;62006;-82
2022/05/07 01:26:20;;;;;;;;;;;;;;;19.86;40.06;101607.00;104583;1308;73702;-87
2022/05/07 01:29:23;;;;;;;;;;;;;;;19.86;40.05;101608.63;104650;1308;75665;-83
2022/05/07 01:32:07;;;;;;;;;;;;;;;19.86;40.06;101605.21;104584;1308;62188;-82
2022/05/07 01:34:51;;;;;;;;;;;;;;;19.86;40.02;101603.27;104661;1308;61843;-88
2022/05/07 01:37:28;;;;;;;;;;;;;;;;;;;;;
2022/05/07 01:40:08;;;;;;;;;;;;;;;19.85;40.12;101606.86;104655;1307;75726;-86
2022/05/07 01:42:51;;;;;;;;;;;;;;;19.85;40.16;101606.52;104649;1308;62101;-80
2022/05/07 01:45:31;;;;;;;;;;;;;;;19.85;40.20;101606.70;104659;1307;62072;-88
2022/05/07 01:48:24;;;;;;;;;;;;;;;;;;;;;
2022/05/07 01:51:15;;;;;;;;;;;;;;;19.84;40.15;101606.73;104665;1307;76118;-83
2022/05/07 01:53:58;;;;;;;;;;;;;;;19.85;40.10;101609.75;104604;1308;62014;-83
2022/05/07 01:56:29;;;;;;;;;;;;;;;19.85;40.24;101608.86;104676;1308;62101;-82
2022/05/07 01:59:16;;;;;;;;;;;;;;;19.84;40.28;101604.24;104577;1307;73200;-89
2022/05/07 02:02:02;;;;;;;;;;;;;;;19.84;40.42;101604.07;105338;1299;75778;-82
2022/05/07 02:04:47;;;;;;;;;;;;;;;;;;;;;
2022/05/07 02:07:32;;;;;;;;;;;;;;;19.83;40.32;101602.89;105392;1299;61979;-87
2022/05/07 02:10:27;;;;;;;;;;;;;;;19.83;40.30;101607.84;105273;1299;73994;-82
2022/05/07 02:13:11;;;;;;;;;;;;;;;19.84;40.49;101604.98;105273;1299;77277;-82
2022/05/07 02:16:00;;;;;;;;;;;;;;;19.83;40.60;101602.66;105367;1299;61988;-84
2022/05/07 02:19:00;;;;;;;;;;;;;;;19.84;40.55;101599.27;105345;1297;62039;-81
2022/05/07 02:21:46;;;;;;;;;;;;;;;19.83;40.43;101595.35;105385;1299;72867;-88
2022/05/07 02:24:19;;;;;;;;;;;;;;;19.83;40.55;101598.59;105398;1298;75449;-84
2022/05/07 02:27:05;;;;;;;;;;;;;;;;;;;;;
2022/05/07 02:30:00;;;;;;;;;;;;;;;19.83;40.56;101598.58;105407;1298;63087;-81
2022/05/07 02:32:49;;;;;;;;;;;;;;;19.83;40.56;101596.29;105411;1299;72549;-85
2022/05/07 02:35:21;;;;;;;;;;;;;;;19.83;40.63;101594.49;105358;1298;76556;-82
2022/05/07 02:38:18;;;;;;;;;;;;;;;19.82;40.74;101593.80;105347;1299;61913;-84
2022/05/07 02:44:03;;;;;;;;;;;;;;;19.82;40.64;101594.69;105391;1298;71595;-86
2022/05/07 02:46:57;;;;;;;;;;;;;;;;;;;;;
2022/05/07 02:49:43;;;;;;;;;;;;;;;19.82;40.79;101591.29;105391;1298;62068;-83
2022/05/07 02:52:17;;;;;;;;;;;;;;;19.82;40.65;101593.84;105404;1299;61930;-83
2022/05/07 02:54:52;;;;;;;;;;;;;;;19.81;40.53;101595.64;105231;1300;72877;-84
2022/05/07 02:57:28;;;;;;;;;;;;;;;19.82;40.67;101595.25;105427;1297;75902;-81
2022/05/07 03:00:34;;;;;;;;;;;;;;;19.81;40.70;101595.10;105355;1298;61979;-83
2022/05/07 03:03:14;;;;;;;;;;;;;;;19.81;40.79;101601.19;105384;1299;61809;-88
2022/05/07 03:08:48;;;;;;;;;;;;;;;19.81;40.64;101604.59;105269;1298;75564;-85
2022/05/07 03:11:27;;;;;;;;;;;;;;;19.81;40.81;101606.36;105350;1299;61975;-86
2022/05/07 03:13:56;;;;;;;;;;;;;;;19.81;40.68;101605.66;105425;1299;61975;-84
2022/05/07 03:16:48;;;;;;;;;;;;;;;19.81;40.91;101604.77;105374;1299;71583;-82
2022/05/07 03:19:31;;;;;;;;;;;;;;;19.80;40.68;101608.89;104909;1305;75696;-83
2022/05/07 03:22:11;;;;;;;;;;;;;;;19.81;40.86;101603.89;104929;1305;62034;-85
2022/05/07 03:24:59;;;;;;;;;;;;;;;19.80;40.80;101606.76;104895;1305;62076;-83
2022/05/07 03:27:55;;;;;;;;;;;;;;;19.80;40.82;101605.34;104912;1304;74129;-85
2022/05/07 03:30:32;;;;;;;;;;;;;;;19.80;40.94;101608.36;104875;1305;76610;-82
2022/05/07 03:33:18;;;;;;;;;;;;;;;19.80;40.81;101607.46;104894;1305;61943;-86
2022/05/07 03:36:05;;;;;;;;;;;;;;;19.80;40.71;101610.50;104909;1304;62059;-86
2022/05/07 03:38:31;;;;;;;;;;;;;;;19.81;40.89;101610.14;104894;1305;73286;-83
2022/05/07 03:41:19;;;;;;;;;;;;;;;19.81;40.82;101611.56;104804;1305;76139;-86
2022/05/07 03:44:05;;;;;;;;;;;;;;;19.81;40.84;101612.09;104860;1305;62317;-82
2022/05/07 03:46:35;;;;;;;;;;;;;;;19.80;40.95;101607.83;104769;1305;61973;-84
2022/05/07 03:49:23;;;;;;;;;;;;;;;19.81;40.93;101607.64;104871;1305;74017;-83
2022/05/07 03:55:12;;;;;;;;;;;;;;;;;;;;;
2022/05/07 03:57:50;;;;;;;;;;;;;;;19.80;40.88;101601.04;105314;1297;62090;-82
2022/05/07 04:00:51;;;;;;;;;;;;;;;19.80;40.94;101599.77;105344;1297;72752;-82
2022/05/07 04:03:16;;;;;;;;;;;;;;;19.81;40.90;101602.26;105359;1299;75468;-86
2022/05/07 04:05:59;;;;;;;;;;;;;;;19.81;40.91;101605.67;105424;1298;62005;-85
2022/05/07 04:08:33;;;;;;;;;;;;;;;19.81;40.90;101612.27;105377;1299;60243;-85
2022/05/07 04:11:02;;;;;;;;;;;;;;;19.81;41.08;101613.34;105328;1299;72715;-85
2022/05/07 04:13:43;;;;;;;;;;;;;;;19.81;40.87;101614.75;105389;1298;76925;-83
2022/05/07 04:16:38;;;;;;;;;;;;;;;19.81;40.99;101615.31;105405;1298;62070;-85
2022/05/07 04:19:16;;;;;;;;;;;;;;;;;;;;;
2022/05/07 04:22:01;;;;;;;;;;;;;;;19.82;40.96;101620.42;105429;1297;73747;-84
2022/05/07 04:24:34;;;;;;;;;;;;;;;19.82;40.92;101621.86;105301;1299;62075;-87
2022/05/07 04:27:52;;;;;;;;;;;;;;;;;;;;;
2022/05/07 04:30:20;;;;;;;;;;;;;;;19.83;41.02;101622.52;105412;1299;61093;-84
2022/05/07 04:32:59;;;;;;;;;;;;;;;19.83;41.07;101625.36;105325;1297;72895;-82
2022/05/07 04:35:43;;;;;;;;;;;;;;;19.83;41.12;101632.52;105357;1297;75951;-84
2022/05/07 04:38:22;;;;;;;;;;;;;;;;;;;;;
2022/05/07 04:41:07;;;;;;;;;;;;;;;19.84;41.07;101638.02;105346;1297;61981;-85
2022/05/07 04:43:56;;;;;;;;;;;;;;;19.84;41.24;101639.27;105411;1297;73836;-79
2022/05/07 04:46:30;;;;;;;;;;;;;;;19.84;41.05;101639.08;105355;1297;76712;-82
2022/05/07 04:49:27;;;;;;;;;;;;;;;19.84;40.95;101646.02;105287;1299;62047;-81
2022/05/07 04:52:08;;;;;;;;;;;;;;;19.84;41.19;101642.81;105414;1299;62239;-84
2022/05/07 04:55:06;;;;;;;;;;;;;;;19.85;41.19;101648.50;105367;1299;73756;-89
2022/05/07 04:57:43;;;;;;;;;;;;;;;19.85;41.11;101646.33;105252;1299;75543;-88
2022/05/07 05:00:39;;;;;;;;;;;;;;;;;;;;;
2022/05/07 05:03:17;;;;;;;;;;;;;;;19.86;41.02;101647.56;105411;1299;62072;-84
2022/05/07 05:05:59;;;;;;;;;;;;;;;19.86;41.02;101649.48;105293;1299;72851;-82
2022/05/07 05:08:57;;;;;;;;;;;;;;;19.87;41.30;101650.71;105358;1299;75512;-81
2022/05/07 05:11:32;;;;;;;;;;;;;;;;;;;;;
2022/05/07 05:17:09;;;;;;;;;;;;;;;19.87;41.35;101655.70;105406;1298;73818;-83
2022/05/07 05:20:14;;;;;;;;;;;;;;;19.87;41.45;101656.41;105375;1299;75496;-86
2022/05/07 05:22:55;;;;;;;;;;;;;;;19.87;41.29;101658.94;105388;1299;60814;-83
2022/05/07 05:25:45;;;;;;;;;;;;;;;19.87;41.33;101662.16;105254;1300;61931;-84
2022/05/07 05:28:35;;;;;;;;;;;;;;;19.88;41.42;101667.30;105393;1299;74355;-84
2022/05/07 05:31:35;;;;;;;;;;;;;;;;;;;;;
2022/05/07 05:34:25;;;;;;;;;;;;;;;19.88;41.26;101672.60;105033;1300;61995;-83
2022/05/07 05:37:09;;;;;;;;;;;;;;;19.88;41.42;101675.81;105233;1300;62100;-82
2022/05/07 05:39:47;;;;;;;;;;;;;;;;;;;;;
2022/05/07 05:42:33;;;;;;;;;;;;;;;19.91;41.50;101676.59;105400;1299;76690;-83
2022/05/07 05:45:28;;;;;;;;;;;;;;;19.91;41.46;101678.51;104905;1305;61950;-83
2022/05/07 05:48:14;;;;;;;;;;;;;;;19.93;41.30;101683.96;104885;1305;61900;-88
2022/05/07 05:51:31;;;;;;;;;;;;;;;19.94;41.31;101684.65;104795;1304;71541;-86
2022/05/07 05:54:08;;;;;;;;;;;;;;;19.95;41.40;101684.63;104883;1305;76600;-83
2022/05/07 05:56:44;;;;;;;;;;;;;;;19.96;41.21;101685.45;104856;1305;62075;-82
2022/05/07 05:59:20;;;;;;;;;;;;;;;19.97;41.52;101684.34;104569;1305;62032;-81
2022/05/07 06:01:58;;;;;;;;;;;;;;;19.97;41.69;101686.09;104901;1305;72923;-83
2022/05/07 06:04:33;;;;;;;;;;;;;;;19.97;41.54;101687.52;104870;1305;75690;-83
2022/05/07 06:07:10;;;;;;;;;;;;;;;19.97;41.41;101686.44;104896;1304;61964;-85
2022/05/07 06:09:56;;;;;;;;;;;;;;;19.98;41.41;101692.30;104910;1305;62675;-82
2022/05/07 06:12:33;;;;;;;;;;;;;;;19.99;41.56;101693.67;104874;1305;72715;-86
2022/05/07 06:15:41;;;;;;;;;;;;;;;19.99;41.51;101694.73;104852;1305;74257;-83
2022/05/07 06:18:29;;;;;;;;;;;;;;;20.00;41.60;101695.95;104331;1313;62618;-85
2022/05/07 06:21:47;;;;;;;;;;;;;;;20.00;41.46;101696.65;104372;1313;62013;-85
2022/05/07 06:27:40;;;;;;;;;;;;;;;;;;;;;
2022/05/07 06:30:26;;;;;;;;;;;;;;;20.02;41.81;101694.76;104706;1306;62258;-82
2022/05/07 06:33:05;;;;;;;;;;;;;;;20.03;41.70;101694.91;104621;1307;62071;-82
2022/05/07 06:35:54;;;;;;;;;;;;;;;20.04;41.56;101694.30;104668;1306;72604;-84
2022/05/07 06:38:22;;;;;;;;;;;;;;;20.03;41.59;101690.75;104303;1313;75654;-82
2022/05/07 06:41:12;;;;;;;;;;;;;;;20.04;41.75;101688.78;104236;1313;62190;-80
2022/05/07 06:43:49;;;;;;;;;;;;;;;20.04;41.86;101692.89;104264;1313;60814;-88
2022/05/07 06:46:25;;;;;;;;;;;;;;;20.04;41.81;101694.65;104234;1313;72663;-84
2022/05/07 06:48:54;;;;;;;;;;;;;;;20.05;41.75;101694.80;104219;1311;74686;-90
2022/05/07 06:51:31;;;;;;;;;;;;;;;;;;;;;
2022/05/07 06:54:12;;;;;;;;;;;;;;;20.05;41.82;101693.73;99754;1313;5849891;-79
2022/05/07 06:56:47;;;;;;;;;;;;;;;20.05;41.78;101690.85;104228;1311;73224;-83
2022/05/07 06:59:47;;;;;;;;;;;;;;;;;;;;;
2022/05/07 07:02:22;;;;;;;;;;;;;;;20.05;41.93;101690.30;104223;1313;62002;-79
2022/05/07 07:04:49;;;;;;;;;;;;;;;20.06;41.90;101692.03;104244;1313;61981;-82
2022/05/07 07:07:25;;;;;;;;;;;;;;;;;;;;;
2022/05/07 07:10:03;;;;;;;;;;;;;;;20.06;41.91;101693.65;104334;1313;75576;-82
2022/05/07 07:12:38;;;;;;;;;;;;;;;20.06;42.06;101688.27;104220;1313;62293;-80
2022/05/07 07:15:10;;;;;;;;;;;;;;;20.06;41.99;101686.67;104255;1305;62115;-84
2022/05/07 07:17:54;;;;;;;;;;;;;;;20.06;41.99;101687.20;104544;1305;73630;-81
2022/05/07 07:20:22;;;;;;;;;;;;;;;20.07;42.15;101679.48;104339;1305;74598;-83
2022/05/07 07:22:56;;;;;;;;;;;;;;;20.07;42.08;101678.27;104583;1305;62533;-84
2022/05/07 07:25:21;;;;;;;;;;;;;;;20.08;41.96;101678.77;104543;1305;62258;-81
2022/05/07 07:28:05;;;;;;;;;;;;;;;20.07;42.05;101674.65;104562;1305;72820;-83
2022/05/07 07:30:36;;;;;;;;;;;;;;;20.07;42.12;101679.85;104739;1305;75538;-88
2022/05/07 07:33:15;;;;;;;;;;;;;;;;;;;;;
2022/05/07 07:36:12;;;;;;;;;;;;;;;20.08;42.10;101681.42;105148;1302;62090;-82
2022/05/07 07:39:07;;;;;;;;;;;;;;;20.08;42.11;101679.83;105137;1302;74015;-85
2022/05/07 07:41:35;;;;;;;;;;;;;;;20.08;42.20;101684.43;105148;1302;76619;-82
2022/05/07 07:44:21;;;;;;;;;;;;;;;;;;;;;
2022/05/07 07:50:15;;;;;;;;;;;;;;;;;;;;;
2022/05/07 07:52:44;;;;;;;;;;;;;;;20.09;42.22;101691.53;105131;1302;75499;-84
2022/05/07 07:55:24;;;;;;;;;;;;;;;;;;;;;
2022/05/07 07:58:18;;;;;;;;;;;;;;;;;;;;;
2022/05/07 08:00:52;;;;;;;;;;;;;;;20.10;42.36;101697.58;105393;1299;71520;-84
2022/05/07 08:03:28;;;;;;;;;;;;;;;20.09;42.14;101696.33;105235;1299;74826;-82
2022/05/07 08:05:54;;;;;;;;;;;;;;;20.10;42.36;101697.36;105229;1299;61853;-82
2022/05/07 08:14:22;;;;;;;;;;;;;;;20.12;42.37;101700.35;105259;1299;74787;-82
2022/05/07 08:17:08;;;;;;;;;;;;;;;;;;;;;
2022/05/07 08:19:48;;;;;;;;;;;;;;;20.11;42.25;101700.55;105410;1300;62156;-83
2022/05/07 08:22:25;;;;;;;;;;;;;;;;;;;;;
2022/05/07 08:25:01;;;;;;;;;;;;;;;20.11;42.39;101699.50;105382;1300;76602;-81
2022/05/07 08:27:53;;;;;;;;;;;;;;;20.11;42.40;101702.16;105321;1299;61915;-83
2022/05/07 08:30:27;;;;;;;;;;;;;;;20.10;42.20;101700.92;105263;1299;61813;-84
2022/05/07 08:33:05;;;;;;;;;;;;;;;20.10;42.41;101702.00;105312;1299;72755;-82
2022/05/07 08:35:42;;;;;;;;;;;;;;;20.11;42.17;101703.42;105334;1299;76661;-83
2022/05/07 08:38:28;;;;;;;;;;;;;;;20.11;42.25;101702.88;105371;1299;62038;-83
2022/05/07 08:41:07;;;;;;;;;;;;;;;20.12;42.54;101702.50;104806;1305;62199;-87
2022/05/07 08:43:36;;;;;;;;;;;;;;;20.12;42.36;101698.38;104773;1305;73127;-81
2022/05/07 08:46:24;;;;;;;;;;;;;;;20.11;42.37;101698.75;104829;1305;75589;-83
2022/05/07 08:49:07;;;;;;;;;;;;;;;20.12;42.46;101698.37;104765;1305;60066;-82
2022/05/07 08:51:38;;;;;;;;;;;;;;;20.12;42.26;101698.38;104813;1305;61999;-85
2022/05/07 08:54:20;;;;;;;;;;;;;;;20.13;42.72;101698.33;104905;1304;72898;-83
2022/05/07 08:57:05;;;;;;;;;;;;;;;20.12;42.41;101695.31;104898;1305;76324;-83
2022/05/07 08:59:31;;;;;;;;;;;;;;;20.12;42.62;101692.82;104904;1305;62010;-84
2022/05/07 09:02:30;;;;;;;;;;;;;;;20.12;42.44;101695.69;104788;1305;61843;-87
2022/05/07 09:05:06;;;;;;;;;;;;;;;20.12;42.46;101690.14;104772;1305;74011;-82
2022/05/07 09:07:50;;;;;;;;;;;;;;;20.12;42.43;101694.23;104654;1305;77477;-82
2022/05/07 09:10:19;;;;;;;;;;;;;;;20.12;42.47;101698.52;104709;1306;62147;-82
2022/05/07 09:13:01;;;;;;;;;;;;;;;20.13;42.43;101697.80;104791;1306;61950;-83
2022/05/07 09:15:56;;;;;;;;;;;;;;;20.13;42.41;101688.85;104518;1305;71458;-82
2022/05/07 09:18:33;;;;;;;;;;;;;;;20.13;42.44;101690.63;104898;1297;75601;-84
2022/05/07 09:21:32;;;;;;;;;;;;;;;20.13;42.49;101689.88;105466;1296;62164;-81
2022/05/07 09:24:02;;;;;;;;;;;;;;;20.13;42.34;101689.36;105491;1296;61963;-83
2022/05/07 09:26:59;;;;;;;;;;;;;;;;;;;;;
2022/05/07 09:29:48;;;;;;;;;;;;;;;20.13;42.46;101685.42;105444;1296;74431;-83
2022/05/07 09:32:42;;;;;;;;;;;;;;;20.13;42.67;101682.75;104915;1303;62109;-83
2022/05/07 09:38:48;;;;;;;;;;;;;;;20.14;42.48;101674.51;104896;1303;71530;-84
2022/05/07 09:41:43;;;;;;;;;;;;;;;20.14;42.53;101673.93;104896;1303;76473;-82
2022/05/07 09:44:32;;;;;;;;;;;;;;;20.14;42.58;101675.01;104879;1303;63099;-88
2022/05/07 09:47:18;;;;;;;;;;;;;;;;;;;;;
2022/05/07 09:57:30;;;;;;;;;;;;;;;20.15;42.42;101665.34;104896;1303;76546;-85
2022/05/07 09:58:51;;;;;;;;;;;;;;;20.15;42.36;101660.67;104907;1303;62588;-83
2022/05/07 10:01:53;;;;;;;;;;;;;;;20.15;42.59;101653.68;104834;1305;73983;-83
2022/05/07 10:04:38;;;;;;;;;;;;;;;20.15;42.35;101652.46;104919;1303;75554;-86
2022/05/07 10:07:17;;;;;;;;;;;;;;;;;;;;;
2022/05/07 10:09:52;;;;;;;;;;;;;;;20.15;42.55;101648.88;105256;1296;61964;-80
2022/05/07 10:12:38;;;;;;;;;;;;;;;20.15;42.39;101645.13;105433;1297;61928;-82
2022/05/07 10:15:29;;;;;;;;;;;;;;;20.15;42.57;101643.17;105476;1296;76888;-82
2022/05/07 10:18:30;;;;;;;;;;;;;;;20.14;42.31;101641.59;105486;1297;61978;-85
2022/05/07 10:21:09;;;;;;;;;;;;;;;20.15;42.58;101642.10;105372;1297;61948;-85
2022/05/07 10:23:58;;;;;;;;;;;;;;;20.15;42.45;101639.95;105507;1297;72872;-85
2022/05/07 10:26:34;;;;;;;;;;;;;;;;;;;;;
2022/05/07 10:29:39;;;;;;;;;;;;;;;20.14;42.54;101638.73;105505;1296;61950;-84
2022/05/07 10:32:18;;;;;;;;;;;;;;;;;;;;;
2022/05/07 10:35:10;;;;;;;;;;;;;;;20.14;42.31;101626.92;104899;1303;73905;-83
2022/05/07 10:37:54;;;;;;;;;;;;;;;;;;;;;
2022/05/07 10:40:31;;;;;;;;;;;;;;;20.14;42.33;101631.95;104903;1303;61970;-86
2022/05/07 10:43:05;;;;;;;;;;;;;;;20.15;42.57;101628.17;104892;1303;62049;-88
2022/05/07 10:46:23;;;;;;;;;;;;;;;20.14;42.45;101628.36;104788;1303;73145;-81
2022/05/07 10:48:56;;;;;;;;;;;;;;;20.14;42.55;101620.52;104789;1303;75777;-85
2022/05/07 10:51:58;;;;;;;;;;;;;;;20.14;42.59;101621.77;104906;1303;62358;-80
2022/05/07 10:54:33;;;;;;;;;;;;;;;20.14;42.49;101623.17;104758;1303;61839;-82
2022/05/07 10:57:05;;;;;;;;;;;;;;;20.14;42.63;101612.81;104831;1303;73262;-82
2022/05/07 10:59:33;;;;;;;;;;;;;;;20.14;42.52;101611.39;104836;1303;75914;-84
2022/05/07 11:02:13;;;;;;;;;;;;;;;20.15;42.58;101618.67;104703;1303;62139;-81
2022/05/07 11:05:05;;;;;;;;;;;;;;;20.14;42.56;101613.16;104566;1304;61941;-81
2022/05/07 11:07:30;;;;;;;;;;;;;;;20.15;42.45;101606.89;104584;1303;73308;-82
2022/05/07 11:10:05;;;;;;;;;;;;;;;20.15;42.52;101602.58;105170;1296;62119;-83
2022/05/07 11:12:42;;;;;;;;;;;;;;;20.16;42.47;101600.58;105155;1297;62042;-82
2022/05/07 11:15:17;;;;;;;;;;;;;;;20.16;42.62;101596.99;105371;1297;61975;-81
2022/05/07 11:17:45;;;;;;;;;;;;;;;20.16;42.52;101597.69;105142;1296;74092;-82
2022/05/07 11:20:35;;;;;;;;;;;;;;;20.16;42.38;101590.89;105261;1297;76467;-81
2022/05/07 11:23:05;;;;;;;;;;;;;;;20.17;42.65;101588.38;105231;1299;61991;-81
2022/05/07 11:25:38;;;;;;;;;;;;;;;20.18;42.52;101585.64;105239;1297;61979;-82
2022/05/07 11:28:06;;;;;;;;;;;;;;;20.18;42.60;101584.58;105350;1297;73766;-81
2022/05/07 11:30:38;;;;;;;;;;;;;;;20.18;42.50;101580.98;105192;1296;77001;-83
2022/05/07 11:33:24;;;;;;;;;;;;;;;20.18;42.39;101579.02;105408;1297;61974;-82
2022/05/07 11:35:58;;;;;;;;;;;;;;;20.18;42.61;101581.31;104894;1305;62085;-82
2022/05/07 11:38:24;;;;;;;;;;;;;;;20.19;42.52;101577.56;104516;1306;72167;-82
2022/05/07 11:40:52;;;;;;;;;;;;;;;20.19;42.55;101579.67;104466;1305;62235;-84
2022/05/07 11:47:06;;;;;;;;;;;;;;;20.19;42.65;101571.27;104247;1313;62099;-81
2022/05/07 11:49:54;;;;;;;;;;;;;;;20.19;42.58;101568.74;103720;1318;74036;-82
2022/05/07 11:52:34;;;;;;;;;;;;;;;20.20;42.56;101565.88;103605;1319;75616;-83
2022/05/07 11:55:22;;;;;;;;;;;;;;;20.20;42.57;101559.95;103681;1319;62077;-86
2022/05/07 11:57:50;;;;;;;;;;;;;;;20.20;42.52;101557.60;103655;1319;62058;-81
2022/05/07 12:00:55;;;;;;;;;;;;;;;;;;;;;
2022/05/07 12:03:26;;;;;;;;;;;;;;;20.20;42.57;101555.83;103729;1319;75662;-84
2022/05/07 12:06:19;;;;;;;;;;;;;;;20.20;42.60;101554.04;103749;1319;62160;-85
2022/05/07 12:08:52;;;;;;;;;;;;;;;20.20;42.60;101544.02;103101;1323;62052;-82
2022/05/07 12:11:37;;;;;;;;;;;;;;;20.21;42.55;101538.27;103016;1322;71875;-82
2022/05/07 12:14:21;;;;;;;;;;;;;;;;;;;;;
2022/05/07 12:19:54;;;;;;;;;;;;;;;20.21;42.54;101536.15;103108;1322;62231;-82
2022/05/07 12:31:55;;;;;;;;;;;;;;;20.21;42.62;101526.48;103368;1317;62021;-81
2022/05/07 12:34:31;;;;;;;;;;;;;;;20.20;42.68;101527.58;103605;1319;72799;-82
2022/05/07 12:37:06;;;;;;;;;;;;;;;20.21;42.69;101518.63;103556;1318;75676;-84
2022/05/07 12:39:45;;;;;;;;;;;;;;;20.20;42.66;101517.74;103593;1318;62014;-82
2022/05/07 12:42:11;;;;;;;;;;;;;;;20.21;42.63;101515.41;103534;1319;61964;-84
2022/05/07 12:44:44;;;;;;;;;;;;;;;20.21;42.67;101509.67;103802;1317;62136;-82
2022/05/07 12:47:33;;;;;;;;;;;;;;;20.21;42.67;101507.70;104191;1312;75344;-81
2022/05/07 12:50:07;;;;;;;;;;;;;;;20.21;42.79;101504.31;104199;1313;61975;-81
2022/05/07 12:52:32;;;;;;;;;;;;;;;20.21;42.72;101504.13;104286;1311;62013;-82
2022/05/07 12:55:25;;;;;;;;;;;;;;;20.21;42.94;101503.39;104202;1313;72749;-83
2022/05/07 12:57:54;;;;;;;;;;;;;;;20.21;42.96;101499.64;104189;1313;76610;-84
2022/05/07 13:00:28;;;;;;;;;;;;;;;20.21;42.86;101500.36;104175;1313;62141;-82
2022/05/07 13:03:00;;;;;;;;;;;;;;;20.22;42.83;101499.22;104244;1308;62169;-83
2022/05/07 13:05:26;;;;;;;;;;;;;;;20.23;42.84;101498.50;104508;1306;73707;-81
2022/05/07 13:07:55;;;;;;;;;;;;;;;20.23;42.68;101497.73;104491;1306;62072;-82
2022/05/07 13:10:29;;;;;;;;;;;;;;;20.24;42.81;101494.66;104485;1306;61931;-86
2022/05/07 13:13:05;;;;;;;;;;;;;;;20.24;42.73;101491.05;104692;1305;62169;-83
2022/05/07 13:16:12;;;;;;;;;;;;;;;;;;;;;
2022/05/07 13:18:45;;;;;;;;;;;;;;;20.25;42.74;101482.80;104692;1305;75707;-88
2022/05/07 13:21:23;;;;;;;;;;;;;;;20.25;42.72;101483.00;104837;1305;62079;-91
2022/05/07 13:24:12;;;;;;;;;;;;;;;20.25;42.81;101481.52;104865;1305;61847;-87
2022/05/07 13:26:51;;;;;;;;;;;;;;;;;;;;;
2022/05/07 13:29:34;;;;;;;;;;;;;;;20.26;42.71;101480.75;104679;1305;77603;-79
2022/05/07 13:32:09;;;;;;;;;;;;;;;20.27;42.66;101481.27;104678;1305;62094;-82
2022/05/07 13:34:46;;;;;;;;;;;;;;;20.28;42.80;101476.41;104658;1306;62253;-83
2022/05/07 13:37:24;;;;;;;;;;;;;;;;;;;;;
2022/05/07 13:39:50;;;;;;;;;;;;;;;20.29;42.61;101471.38;104816;1305;75720;-84
2022/05/07 13:42:29;;;;;;;;;;;;;;;20.29;42.86;101474.55;104662;1306;62133;-85
2022/05/07 13:45:07;;;;;;;;;;;;;;;20.30;42.77;101471.30;104805;1305;61976;-84
2022/05/07 13:47:51;;;;;;;;;;;;;;;20.31;42.79;101474.11;104712;1306;71876;-85
2022/05/07 13:50:45;;;;;;;;;;;;;;;20.31;42.85;101468.16;104676;1305;74359;-82
2022/05/07 13:53:32;;;;;;;;;;;;;;;20.32;42.94;101467.77;104855;1305;61801;-82
2022/05/07 13:56:09;;;;;;;;;;;;;;;20.33;42.65;101463.23;104658;1305;62828;-83
2022/05/07 13:58:48;;;;;;;;;;;;;;;20.34;42.62;101463.18;104665;1306;72701;-82
2022/05/07 14:01:17;;;;;;;;;;;;;;;20.34;42.66;101458.16;104680;1305;75552;-82
2022/05/07 14:03:59;;;;;;;;;;;;;;;20.36;42.85;101458.80;104807;1305;62168;-86
2022/05/07 14:06:32;;;;;;;;;;;;;;;20.36;42.81;101452.34;104826;1305;60206;-86
2022/05/07 14:09:23;;;;;;;;;;;;;;;20.36;42.80;101449.45;104782;1305;73833;-86
2022/05/07 14:12:02;;;;;;;;;;;;;;;;;;;;;
2022/05/07 14:14:40;;;;;;;;;;;;;;;20.38;42.82;101447.20;104442;1310;61922;-84
2022/05/07 14:17:13;;;;;;;;;;;;;;;20.39;42.87;101450.39;104335;1311;61316;-84
2022/05/07 14:20:01;;;;;;;;;;;;;;;20.39;42.53;101449.98;104407;1310;72865;-88
2022/05/07 14:22:36;;;;;;;;;;;;;;;;;;;;;
2022/05/07 14:25:35;;;;;;;;;;;;;;;20.42;42.68;101449.67;104771;1303;61976;-82
2022/05/07 14:28:16;;;;;;;;;;;;;;;20.42;42.56;101452.15;104435;1310;62074;-82
2022/05/07 14:31:05;;;;;;;;;;;;;;;20.43;42.86;101444.95;104378;1311;74164;-83
2022/05/07 14:33:36;;;;;;;;;;;;;;;20.44;42.76;101443.62;103848;1319;77083;-83
2022/05/07 14:36:32;;;;;;;;;;;;;;;;;;;;;
2022/05/07 14:39:09;;;;;;;;;;;;;;;20.46;42.73;101430.31;103198;1319;62132;-86
2022/05/07 14:41:57;;;;;;;;;;;;;;;20.47;42.60;101431.31;103704;1319;72755;-85
2022/05/07 14:44:39;;;;;;;;;;;;;;;20.47;42.70;101435.42;103727;1319;76857;-84
2022/05/07 14:47:05;;;;;;;;;;;;;;;20.48;42.55;101436.09;103738;1318;62327;-86
2022/05/07 14:49:53;;;;;;;;;;;;;;;20.48;42.69;101436.79;104127;1313;62100;-84
2022/05/07 14:52:48;;;;;;;;;;;;;;;20.49;42.71;101431.02;104223;1314;71468;-88
2022/05/07 14:55:22;;;;;;;;;;;;;;;20.49;42.55;101429.73;104318;1313;75689;-81
2022/05/07 14:57:56;;;;;;;;;;;;;;;20.50;42.59;101430.80;104231;1314;62088;-84
2022/05/07 15:00:29;;;;;;;;;;;;;;;20.51;42.56;101428.92;104315;1313;61962;-83
2022/05/07 15:03:21;;;;;;;;;;;;;;;20.51;42.72;101430.71;104317;1313;73633;-85
2022/05/07 15:05:55;;;;;;;;;;;;;;;20.51;42.67;101429.09;104527;1305;75480;-84
2022/05/07 15:11:36;;;;;;;;;;;;;;;20.53;42.75;101431.52;105043;1299;62274;-82
2022/05/07 15:14:31;;;;;;;;;;;;;;;20.54;42.43;101429.32;105389;1300;73102;-84
2022/05/07 15:17:27;;;;;;;;;;;;;;;20.54;42.59;101428.71;105410;1300;75870;-79
2022/05/07 15:20:00;;;;;;;;;;;;;;;20.54;42.34;101426.59;105418;1297;62341;-83
2022/05/07 15:22:37;;;;;;;;;;;;;;;20.56;42.57;101432.60;105422;1299;60826;-82
2022/05/07 15:25:23;;;;;;;;;;;;;;;20.56;42.54;101430.08;105311;1299;72788;-79
2022/05/07 15:28:06;;;;;;;;;;;;;;;20.56;42.40;101425.21;105408;1299;76564;-85
2022/05/07 15:30:44;;;;;;;;;;;;;;;20.57;42.56;101425.17;105426;1300;61984;-82
2022/05/07 15:39:30;;;;;;;;;;;;;;;20.58;42.57;101420.51;105285;1299;76672;-84